sensor_id;sensor_type;location;lat;lon;timestamp;P1;durP1;ratioP1;P2;durP2;ratioP2
18407;SDS011;9330;52.210;21.174;2022-12-18T00:00:49;41.23;;;23.23;;
18407;SDS011;9330;52.210;21.174;2022-12-18T00:03:16;39.63;;;23.17;;
18407;SDS011;9330;52.210;21.174;2022-12-18T00:05:46;37.60;;;21.83;;
18407;SDS011;9330;52.210;21.174;2022-12-18T00:08:13;42.27;;;23.83;;
18407;SDS011;9330;52.210;21.174;2022-12-18T00:10:41;41.37;;;24.23;;
18407;SDS011;9330;52.210;21.174;2022-12-18T00:13:08;41.47;;;22.80;;
18407;SDS011;9330;52.210;21.174;2022-12-18T00:15:35;41.50;;;24.20;;
18407;SDS011;9330;52.210;21.174;2022-12-18T00:18:04;39.80;;;23.95;;
18407;SDS011;9330;52.210;21.174;2022-12-18T00:20:31;40.75;;;24.35;;
18407;SDS011;9330;52.210;21.174;2022-12-18T00:23:02;40.63;;;23.40;;
18407;SDS011;9330;52.210;21.174;2022-12-18T00:25:29;40.87;;;24.87;;
18407;SDS011;9330;52.210;21.174;2022-12-18T00:27:58;37.80;;;23.17;;
18407;SDS011;9330;52.210;21.174;2022-12-18T00:30:25;41.13;;;24.47;;
18407;SDS011;9330;52.210;21.174;2022-12-18T00:32:52;38.60;;;23.43;;
18407;SDS011;9330;52.210;21.174;2022-12-18T00:35:20;39.80;;;24.88;;
18407;SDS011;9330;52.210;21.174;2022-12-18T00:37:47;39.70;;;23.73;;
18407;SDS011;9330;52.210;21.174;2022-12-18T00:40:14;37.57;;;22.87;;
18407;SDS011;9330;52.210;21.174;2022-12-18T00:42:41;38.50;;;23.00;;
18407;SDS011;9330;52.210;21.174;2022-12-18T00:45:22;38.90;;;23.67;;
18407;SDS011;9330;52.210;21.174;2022-12-18T00:47:50;36.07;;;23.03;;
18407;SDS011;9330;52.210;21.174;2022-12-18T00:50:17;39.50;;;23.57;;
18407;SDS011;9330;52.210;21.174;2022-12-18T00:52:46;38.80;;;23.23;;
18407;SDS011;9330;52.210;21.174;2022-12-18T00:55:13;39.90;;;23.47;;
18407;SDS011;9330;52.210;21.174;2022-12-18T00:57:40;38.33;;;23.60;;
18407;SDS011;9330;52.210;21.174;2022-12-18T01:00:08;40.23;;;23.70;;
18407;SDS011;9330;52.210;21.174;2022-12-18T01:02:37;37.10;;;23.08;;
18407;SDS011;9330;52.210;21.174;2022-12-18T01:05:04;36.67;;;21.73;;
18407;SDS011;9330;52.210;21.174;2022-12-18T01:07:33;37.70;;;21.63;;
18407;SDS011;9330;52.210;21.174;2022-12-18T01:10:00;36.43;;;21.47;;
18407;SDS011;9330;52.210;21.174;2022-12-18T01:12:26;36.17;;;21.03;;
18407;SDS011;9330;52.210;21.174;2022-12-18T01:14:53;34.40;;;20.93;;
18407;SDS011;9330;52.210;21.174;2022-12-18T01:17:20;30.97;;;19.53;;
18407;SDS011;9330;52.210;21.174;2022-12-18T01:19:48;32.00;;;19.83;;
18407;SDS011;9330;52.210;21.174;2022-12-18T01:22:15;30.07;;;18.67;;
18407;SDS011;9330;52.210;21.174;2022-12-18T01:24:43;34.50;;;19.33;;
18407;SDS011;9330;52.210;21.174;2022-12-18T01:27:10;33.40;;;20.07;;
18407;SDS011;9330;52.210;21.174;2022-12-18T01:29:37;32.60;;;19.40;;
18407;SDS011;9330;52.210;21.174;2022-12-18T01:32:04;31.00;;;19.67;;
18407;SDS011;9330;52.210;21.174;2022-12-18T01:34:31;32.67;;;20.30;;
18407;SDS011;9330;52.210;21.174;2022-12-18T01:37:00;31.93;;;19.07;;
18407;SDS011;9330;52.210;21.174;2022-12-18T01:39:28;32.93;;;19.73;;
18407;SDS011;9330;52.210;21.174;2022-12-18T01:41:58;31.80;;;19.43;;
18407;SDS011;9330;52.210;21.174;2022-12-18T01:47:41;31.03;;;18.00;;
18407;SDS011;9330;52.210;21.174;2022-12-18T01:50:10;32.17;;;19.30;;
18407;SDS011;9330;52.210;21.174;2022-12-18T01:52:40;32.17;;;19.60;;
18407;SDS011;9330;52.210;21.174;2022-12-18T01:55:09;35.27;;;19.67;;
18407;SDS011;9330;52.210;21.174;2022-12-18T01:57:38;28.97;;;17.73;;
18407;SDS011;9330;52.210;21.174;2022-12-18T02:00:07;32.07;;;19.37;;
18407;SDS011;9330;52.210;21.174;2022-12-18T02:02:36;32.70;;;18.73;;
18407;SDS011;9330;52.210;21.174;2022-12-18T02:05:05;30.00;;;18.73;;
18407;SDS011;9330;52.210;21.174;2022-12-18T02:07:36;32.70;;;18.80;;
18407;SDS011;9330;52.210;21.174;2022-12-18T02:10:10;29.67;;;18.17;;
18407;SDS011;9330;52.210;21.174;2022-12-18T02:12:45;28.97;;;18.33;;
18407;SDS011;9330;52.210;21.174;2022-12-18T02:15:19;27.20;;;17.80;;
18407;SDS011;9330;52.210;21.174;2022-12-18T02:17:52;31.43;;;19.30;;
18407;SDS011;9330;52.210;21.174;2022-12-18T02:20:22;32.80;;;18.95;;
18407;SDS011;9330;52.210;21.174;2022-12-18T02:23:00;29.10;;;17.30;;
18407;SDS011;9330;52.210;21.174;2022-12-18T02:28:25;28.73;;;17.43;;
18407;SDS011;9330;52.210;21.174;2022-12-18T02:30:57;29.73;;;17.85;;
18407;SDS011;9330;52.210;21.174;2022-12-18T02:33:27;29.43;;;17.83;;
18407;SDS011;9330;52.210;21.174;2022-12-18T02:35:55;28.03;;;16.53;;
18407;SDS011;9330;52.210;21.174;2022-12-18T02:38:24;28.27;;;17.73;;
18407;SDS011;9330;52.210;21.174;2022-12-18T02:40:52;29.73;;;17.27;;
18407;SDS011;9330;52.210;21.174;2022-12-18T02:43:22;28.30;;;16.57;;
18407;SDS011;9330;52.210;21.174;2022-12-18T02:45:49;28.03;;;16.20;;
18407;SDS011;9330;52.210;21.174;2022-12-18T02:48:21;25.85;;;14.75;;
18407;SDS011;9330;52.210;21.174;2022-12-18T02:50:51;25.53;;;14.60;;
18407;SDS011;9330;52.210;21.174;2022-12-18T02:53:27;23.27;;;13.83;;
18407;SDS011;9330;52.210;21.174;2022-12-18T02:56:03;24.60;;;14.30;;
18407;SDS011;9330;52.210;21.174;2022-12-18T02:58:37;23.43;;;13.73;;
18407;SDS011;9330;52.210;21.174;2022-12-18T03:01:11;25.30;;;14.80;;
18407;SDS011;9330;52.210;21.174;2022-12-18T03:03:43;24.52;;;15.25;;
18407;SDS011;9330;52.210;21.174;2022-12-18T03:06:18;28.27;;;15.70;;
18407;SDS011;9330;52.210;21.174;2022-12-18T03:08:51;27.60;;;15.73;;
18407;SDS011;9330;52.210;21.174;2022-12-18T03:11:24;24.35;;;15.27;;
18407;SDS011;9330;52.210;21.174;2022-12-18T03:14:07;23.70;;;14.80;;
18407;SDS011;9330;52.210;21.174;2022-12-18T03:16:36;24.73;;;13.97;;
18407;SDS011;9330;52.210;21.174;2022-12-18T03:19:04;24.00;;;14.33;;
18407;SDS011;9330;52.210;21.174;2022-12-18T03:21:37;26.00;;;15.03;;
18407;SDS011;9330;52.210;21.174;2022-12-18T03:24:07;26.23;;;15.17;;
18407;SDS011;9330;52.210;21.174;2022-12-18T03:26:37;24.93;;;15.00;;
18407;SDS011;9330;52.210;21.174;2022-12-18T03:29:07;25.30;;;14.73;;
18407;SDS011;9330;52.210;21.174;2022-12-18T03:31:39;24.07;;;13.33;;
18407;SDS011;9330;52.210;21.174;2022-12-18T03:34:09;21.60;;;14.13;;
18407;SDS011;9330;52.210;21.174;2022-12-18T03:36:40;24.50;;;14.23;;
18407;SDS011;9330;52.210;21.174;2022-12-18T03:39:07;23.77;;;14.23;;
18407;SDS011;9330;52.210;21.174;2022-12-18T03:41:35;23.42;;;13.60;;
18407;SDS011;9330;52.210;21.174;2022-12-18T03:44:11;21.67;;;13.50;;
18407;SDS011;9330;52.210;21.174;2022-12-18T03:46:41;25.23;;;13.80;;
18407;SDS011;9330;52.210;21.174;2022-12-18T03:49:17;22.00;;;13.23;;
18407;SDS011;9330;52.210;21.174;2022-12-18T03:51:50;21.93;;;13.90;;
18407;SDS011;9330;52.210;21.174;2022-12-18T03:54:20;22.67;;;13.30;;
18407;SDS011;9330;52.210;21.174;2022-12-18T03:56:51;22.13;;;13.50;;
18407;SDS011;9330;52.210;21.174;2022-12-18T03:59:30;25.13;;;13.97;;
18407;SDS011;9330;52.210;21.174;2022-12-18T04:01:58;21.23;;;13.07;;
18407;SDS011;9330;52.210;21.174;2022-12-18T04:04:26;22.80;;;13.20;;
18407;SDS011;9330;52.210;21.174;2022-12-18T04:06:55;21.60;;;12.57;;
18407;SDS011;9330;52.210;21.174;2022-12-18T04:09:23;21.43;;;13.27;;
18407;SDS011;9330;52.210;21.174;2022-12-18T04:11:53;20.00;;;12.43;;
18407;SDS011;9330;52.210;21.174;2022-12-18T04:14:20;18.57;;;12.53;;
18407;SDS011;9330;52.210;21.174;2022-12-18T04:16:47;19.83;;;12.23;;
18407;SDS011;9330;52.210;21.174;2022-12-18T04:19:14;21.83;;;13.27;;
18407;SDS011;9330;52.210;21.174;2022-12-18T04:21:41;19.57;;;12.17;;
18407;SDS011;9330;52.210;21.174;2022-12-18T04:24:07;21.63;;;12.20;;
18407;SDS011;9330;52.210;21.174;2022-12-18T04:26:34;21.10;;;11.87;;
18407;SDS011;9330;52.210;21.174;2022-12-18T04:29:03;22.93;;;12.63;;
18407;SDS011;9330;52.210;21.174;2022-12-18T04:31:29;22.47;;;13.57;;
18407;SDS011;9330;52.210;21.174;2022-12-18T04:33:56;20.47;;;11.63;;
18407;SDS011;9330;52.210;21.174;2022-12-18T04:36:23;20.53;;;12.73;;
18407;SDS011;9330;52.210;21.174;2022-12-18T04:38:53;21.20;;;12.03;;
18407;SDS011;9330;52.210;21.174;2022-12-18T04:41:20;19.53;;;11.87;;
18407;SDS011;9330;52.210;21.174;2022-12-18T04:43:47;19.33;;;12.10;;
18407;SDS011;9330;52.210;21.174;2022-12-18T04:46:15;20.53;;;12.10;;
18407;SDS011;9330;52.210;21.174;2022-12-18T04:48:44;22.20;;;12.57;;
18407;SDS011;9330;52.210;21.174;2022-12-18T04:51:12;19.23;;;12.30;;
18407;SDS011;9330;52.210;21.174;2022-12-18T04:53:40;19.23;;;12.37;;
18407;SDS011;9330;52.210;21.174;2022-12-18T04:56:08;20.20;;;12.50;;
18407;SDS011;9330;52.210;21.174;2022-12-18T04:58:37;20.03;;;11.97;;
18407;SDS011;9330;52.210;21.174;2022-12-18T05:01:04;18.13;;;11.10;;
18407;SDS011;9330;52.210;21.174;2022-12-18T05:03:34;19.13;;;10.97;;
18407;SDS011;9330;52.210;21.174;2022-12-18T05:06:01;18.87;;;11.30;;
18407;SDS011;9330;52.210;21.174;2022-12-18T05:08:29;23.33;;;13.07;;
18407;SDS011;9330;52.210;21.174;2022-12-18T05:10:59;18.20;;;11.40;;
18407;SDS011;9330;52.210;21.174;2022-12-18T05:13:26;21.47;;;12.73;;
18407;SDS011;9330;52.210;21.174;2022-12-18T05:15:53;20.47;;;11.67;;
18407;SDS011;9330;52.210;21.174;2022-12-18T05:18:21;19.93;;;11.37;;
18407;SDS011;9330;52.210;21.174;2022-12-18T05:20:50;18.07;;;11.30;;
18407;SDS011;9330;52.210;21.174;2022-12-18T05:23:18;20.03;;;11.47;;
18407;SDS011;9330;52.210;21.174;2022-12-18T05:25:47;19.03;;;11.40;;
18407;SDS011;9330;52.210;21.174;2022-12-18T05:28:17;18.07;;;11.00;;
18407;SDS011;9330;52.210;21.174;2022-12-18T05:30:47;18.33;;;10.77;;
18407;SDS011;9330;52.210;21.174;2022-12-18T05:33:14;19.33;;;12.50;;
18407;SDS011;9330;52.210;21.174;2022-12-18T05:35:42;19.90;;;11.60;;
18407;SDS011;9330;52.210;21.174;2022-12-18T05:38:10;17.83;;;11.53;;
18407;SDS011;9330;52.210;21.174;2022-12-18T05:40:37;22.23;;;12.10;;
18407;SDS011;9330;52.210;21.174;2022-12-18T05:43:08;19.83;;;11.57;;
18407;SDS011;9330;52.210;21.174;2022-12-18T05:45:36;19.87;;;11.97;;
18407;SDS011;9330;52.210;21.174;2022-12-18T05:48:04;18.93;;;11.47;;
18407;SDS011;9330;52.210;21.174;2022-12-18T05:50:33;19.17;;;11.70;;
18407;SDS011;9330;52.210;21.174;2022-12-18T05:53:01;20.40;;;12.27;;
18407;SDS011;9330;52.210;21.174;2022-12-18T05:55:29;20.57;;;11.80;;
18407;SDS011;9330;52.210;21.174;2022-12-18T05:57:59;22.43;;;11.80;;
18407;SDS011;9330;52.210;21.174;2022-12-18T06:00:26;21.17;;;11.77;;
18407;SDS011;9330;52.210;21.174;2022-12-18T06:02:53;20.57;;;12.77;;
18407;SDS011;9330;52.210;21.174;2022-12-18T06:05:20;20.17;;;11.57;;
18407;SDS011;9330;52.210;21.174;2022-12-18T06:07:47;19.23;;;11.93;;
18407;SDS011;9330;52.210;21.174;2022-12-18T06:10:14;19.77;;;11.57;;
18407;SDS011;9330;52.210;21.174;2022-12-18T06:12:43;19.92;;;11.80;;
18407;SDS011;9330;52.210;21.174;2022-12-18T06:15:10;20.00;;;13.10;;
18407;SDS011;9330;52.210;21.174;2022-12-18T06:17:37;20.30;;;12.03;;
18407;SDS011;9330;52.210;21.174;2022-12-18T06:20:04;22.40;;;11.93;;
18407;SDS011;9330;52.210;21.174;2022-12-18T06:22:32;18.77;;;11.47;;
18407;SDS011;9330;52.210;21.174;2022-12-18T06:24:59;20.43;;;12.00;;
18407;SDS011;9330;52.210;21.174;2022-12-18T06:27:26;21.20;;;12.37;;
18407;SDS011;9330;52.210;21.174;2022-12-18T06:29:55;20.30;;;12.00;;
18407;SDS011;9330;52.210;21.174;2022-12-18T06:32:22;21.43;;;13.00;;
18407;SDS011;9330;52.210;21.174;2022-12-18T06:34:49;21.70;;;12.80;;
18407;SDS011;9330;52.210;21.174;2022-12-18T06:37:16;26.30;;;13.93;;
18407;SDS011;9330;52.210;21.174;2022-12-18T06:39:42;23.55;;;14.73;;
18407;SDS011;9330;52.210;21.174;2022-12-18T06:42:09;23.13;;;13.70;;
18407;SDS011;9330;52.210;21.174;2022-12-18T06:44:36;25.27;;;13.73;;
18407;SDS011;9330;52.210;21.174;2022-12-18T06:47:05;24.67;;;14.27;;
18407;SDS011;9330;52.210;21.174;2022-12-18T06:49:32;25.53;;;14.13;;
18407;SDS011;9330;52.210;21.174;2022-12-18T06:51:58;22.90;;;12.80;;
18407;SDS011;9330;52.210;21.174;2022-12-18T06:54:25;25.60;;;13.90;;
18407;SDS011;9330;52.210;21.174;2022-12-18T06:56:52;27.37;;;14.83;;
18407;SDS011;9330;52.210;21.174;2022-12-18T06:59:22;27.53;;;15.70;;
18407;SDS011;9330;52.210;21.174;2022-12-18T07:01:49;25.77;;;14.47;;
18407;SDS011;9330;52.210;21.174;2022-12-18T07:04:17;27.77;;;15.60;;
18407;SDS011;9330;52.210;21.174;2022-12-18T07:06:44;29.03;;;16.83;;
18407;SDS011;9330;52.210;21.174;2022-12-18T07:09:11;30.43;;;15.80;;
18407;SDS011;9330;52.210;21.174;2022-12-18T07:11:38;29.30;;;15.57;;
18407;SDS011;9330;52.210;21.174;2022-12-18T07:14:05;31.98;;;16.42;;
18407;SDS011;9330;52.210;21.174;2022-12-18T07:16:32;32.00;;;17.60;;
18407;SDS011;9330;52.210;21.174;2022-12-18T07:18:58;30.23;;;16.43;;
18407;SDS011;9330;52.210;21.174;2022-12-18T07:21:27;34.87;;;18.23;;
18407;SDS011;9330;52.210;21.174;2022-12-18T07:23:54;31.20;;;16.90;;
18407;SDS011;9330;52.210;21.174;2022-12-18T07:26:21;31.92;;;17.75;;
18407;SDS011;9330;52.210;21.174;2022-12-18T07:28:48;33.13;;;17.67;;
18407;SDS011;9330;52.210;21.174;2022-12-18T07:31:16;33.43;;;19.30;;
18407;SDS011;9330;52.210;21.174;2022-12-18T07:33:44;37.53;;;20.00;;
18407;SDS011;9330;52.210;21.174;2022-12-18T07:36:11;34.67;;;18.50;;
18407;SDS011;9330;52.210;21.174;2022-12-18T07:38:39;42.00;;;21.40;;
18407;SDS011;9330;52.210;21.174;2022-12-18T07:41:07;41.23;;;20.93;;
18407;SDS011;9330;52.210;21.174;2022-12-18T07:43:36;39.43;;;20.63;;
18407;SDS011;9330;52.210;21.174;2022-12-18T07:46:03;41.37;;;21.60;;
18407;SDS011;9330;52.210;21.174;2022-12-18T07:48:31;46.07;;;22.80;;
18407;SDS011;9330;52.210;21.174;2022-12-18T07:50:58;40.37;;;21.97;;
18407;SDS011;9330;52.210;21.174;2022-12-18T07:53:25;38.20;;;21.23;;
18407;SDS011;9330;52.210;21.174;2022-12-18T07:55:55;43.60;;;22.43;;
18407;SDS011;9330;52.210;21.174;2022-12-18T07:58:23;43.33;;;22.93;;
18407;SDS011;9330;52.210;21.174;2022-12-18T08:00:50;43.77;;;22.87;;
18407;SDS011;9330;52.210;21.174;2022-12-18T08:03:17;45.33;;;22.07;;
18407;SDS011;9330;52.210;21.174;2022-12-18T08:05:44;44.43;;;22.40;;
18407;SDS011;9330;52.210;21.174;2022-12-18T08:08:11;40.30;;;22.13;;
18407;SDS011;9330;52.210;21.174;2022-12-18T08:10:38;45.77;;;23.80;;
18407;SDS011;9330;52.210;21.174;2022-12-18T08:13:06;44.33;;;21.77;;
18407;SDS011;9330;52.210;21.174;2022-12-18T08:15:33;50.33;;;24.97;;
18407;SDS011;9330;52.210;21.174;2022-12-18T08:18:00;51.73;;;25.03;;
18407;SDS011;9330;52.210;21.174;2022-12-18T08:20:27;50.20;;;24.03;;
18407;SDS011;9330;52.210;21.174;2022-12-18T08:22:54;53.83;;;26.23;;
18407;SDS011;9330;52.210;21.174;2022-12-18T08:25:23;54.47;;;24.47;;
18407;SDS011;9330;52.210;21.174;2022-12-18T08:27:49;52.05;;;25.60;;
18407;SDS011;9330;52.210;21.174;2022-12-18T08:30:18;51.77;;;24.83;;
18407;SDS011;9330;52.210;21.174;2022-12-18T08:32:45;58.08;;;27.00;;
18407;SDS011;9330;52.210;21.174;2022-12-18T08:35:13;52.10;;;26.00;;
18407;SDS011;9330;52.210;21.174;2022-12-18T08:37:40;53.40;;;25.13;;
18407;SDS011;9330;52.210;21.174;2022-12-18T08:40:07;51.70;;;24.77;;
18407;SDS011;9330;52.210;21.174;2022-12-18T08:42:35;48.63;;;25.20;;
18407;SDS011;9330;52.210;21.174;2022-12-18T08:45:21;52.10;;;24.70;;
18407;SDS011;9330;52.210;21.174;2022-12-18T08:47:48;53.00;;;25.55;;
18407;SDS011;9330;52.210;21.174;2022-12-18T08:50:15;46.33;;;24.67;;
18407;SDS011;9330;52.210;21.174;2022-12-18T08:52:43;51.47;;;24.57;;
18407;SDS011;9330;52.210;21.174;2022-12-18T08:55:10;54.77;;;25.87;;
18407;SDS011;9330;52.210;21.174;2022-12-18T08:57:36;50.78;;;25.90;;
18407;SDS011;9330;52.210;21.174;2022-12-18T09:00:04;52.07;;;26.03;;
18407;SDS011;9330;52.210;21.174;2022-12-18T09:02:34;55.47;;;26.53;;
18407;SDS011;9330;52.210;21.174;2022-12-18T09:05:01;56.57;;;25.73;;
18407;SDS011;9330;52.210;21.174;2022-12-18T09:07:28;54.33;;;27.63;;
18407;SDS011;9330;52.210;21.174;2022-12-18T09:09:54;55.90;;;27.53;;
18407;SDS011;9330;52.210;21.174;2022-12-18T09:12:21;60.73;;;28.57;;
18407;SDS011;9330;52.210;21.174;2022-12-18T09:14:48;51.20;;;26.80;;
18407;SDS011;9330;52.210;21.174;2022-12-18T09:17:15;55.00;;;28.17;;
18407;SDS011;9330;52.210;21.174;2022-12-18T09:19:43;55.23;;;27.13;;
18407;SDS011;9330;52.210;21.174;2022-12-18T09:22:10;51.53;;;25.47;;
18407;SDS011;9330;52.210;21.174;2022-12-18T09:24:37;52.30;;;25.50;;
18407;SDS011;9330;52.210;21.174;2022-12-18T09:27:04;54.20;;;25.30;;
18407;SDS011;9330;52.210;21.174;2022-12-18T09:29:31;52.43;;;25.47;;
18407;SDS011;9330;52.210;21.174;2022-12-18T09:31:59;53.07;;;24.90;;
18407;SDS011;9330;52.210;21.174;2022-12-18T09:34:25;55.17;;;25.02;;
18407;SDS011;9330;52.210;21.174;2022-12-18T09:36:54;50.30;;;25.33;;
18407;SDS011;9330;52.210;21.174;2022-12-18T09:39:21;50.75;;;25.27;;
18407;SDS011;9330;52.210;21.174;2022-12-18T09:41:50;52.33;;;26.58;;
18407;SDS011;9330;52.210;21.174;2022-12-18T09:44:21;48.77;;;24.47;;
18407;SDS011;9330;52.210;21.174;2022-12-18T09:46:52;49.37;;;25.43;;
18407;SDS011;9330;52.210;21.174;2022-12-18T09:49:26;43.00;;;22.70;;
18407;SDS011;9330;52.210;21.174;2022-12-18T09:51:59;49.83;;;24.10;;
18407;SDS011;9330;52.210;21.174;2022-12-18T09:54:30;44.67;;;23.17;;
18407;SDS011;9330;52.210;21.174;2022-12-18T09:57:01;45.53;;;23.67;;
18407;SDS011;9330;52.210;21.174;2022-12-18T09:59:30;44.77;;;22.37;;
18407;SDS011;9330;52.210;21.174;2022-12-18T10:02:02;41.33;;;21.65;;
18407;SDS011;9330;52.210;21.174;2022-12-18T10:04:39;40.63;;;21.48;;
18407;SDS011;9330;52.210;21.174;2022-12-18T10:07:08;40.43;;;20.93;;
18407;SDS011;9330;52.210;21.174;2022-12-18T10:09:43;41.43;;;22.17;;
18407;SDS011;9330;52.210;21.174;2022-12-18T10:12:19;44.43;;;22.03;;
18407;SDS011;9330;52.210;21.174;2022-12-18T10:14:52;39.22;;;21.20;;
18407;SDS011;9330;52.210;21.174;2022-12-18T10:17:28;41.75;;;22.25;;
18407;SDS011;9330;52.210;21.174;2022-12-18T10:20:02;55.43;;;22.33;;
18407;SDS011;9330;52.210;21.174;2022-12-18T10:22:41;42.38;;;22.23;;
18407;SDS011;9330;52.210;21.174;2022-12-18T10:25:17;38.97;;;21.05;;
18407;SDS011;9330;52.210;21.174;2022-12-18T10:27:50;41.00;;;21.30;;
18407;SDS011;9330;52.210;21.174;2022-12-18T10:30:20;43.57;;;22.00;;
18407;SDS011;9330;52.210;21.174;2022-12-18T10:32:47;38.17;;;21.40;;
18407;SDS011;9330;52.210;21.174;2022-12-18T10:35:16;44.60;;;23.00;;
18407;SDS011;9330;52.210;21.174;2022-12-18T10:38:06;46.28;;;25.02;;
18407;SDS011;9330;52.210;21.174;2022-12-18T10:40:50;43.07;;;23.73;;
18407;SDS011;9330;52.210;21.174;2022-12-18T10:43:23;41.88;;;23.20;;
18407;SDS011;9330;52.210;21.174;2022-12-18T10:45:59;44.17;;;24.88;;
18407;SDS011;9330;52.210;21.174;2022-12-18T10:48:28;44.22;;;24.92;;
18407;SDS011;9330;52.210;21.174;2022-12-18T10:50:57;44.58;;;24.70;;
18407;SDS011;9330;52.210;21.174;2022-12-18T10:53:26;42.80;;;24.38;;
18407;SDS011;9330;52.210;21.174;2022-12-18T10:55:54;47.97;;;25.42;;
18407;SDS011;9330;52.210;21.174;2022-12-18T10:58:28;45.75;;;25.35;;
18407;SDS011;9330;52.210;21.174;2022-12-18T11:01:04;43.40;;;24.53;;
18407;SDS011;9330;52.210;21.174;2022-12-18T11:03:34;43.20;;;23.88;;
18407;SDS011;9330;52.210;21.174;2022-12-18T11:06:03;46.20;;;25.97;;
18407;SDS011;9330;52.210;21.174;2022-12-18T11:08:33;47.73;;;25.73;;
18407;SDS011;9330;52.210;21.174;2022-12-18T11:11:00;46.30;;;25.03;;
18407;SDS011;9330;52.210;21.174;2022-12-18T11:13:28;43.93;;;24.03;;
18407;SDS011;9330;52.210;21.174;2022-12-18T11:15:57;43.70;;;24.15;;
18407;SDS011;9330;52.210;21.174;2022-12-18T11:18:25;43.00;;;24.43;;
18407;SDS011;9330;52.210;21.174;2022-12-18T11:20:54;48.70;;;26.57;;
18407;SDS011;9330;52.210;21.174;2022-12-18T11:23:23;47.63;;;25.13;;
18407;SDS011;9330;52.210;21.174;2022-12-18T11:25:54;43.87;;;24.60;;
18407;SDS011;9330;52.210;21.174;2022-12-18T11:28:35;42.40;;;24.70;;
18407;SDS011;9330;52.210;21.174;2022-12-18T11:31:18;52.60;;;26.65;;
18407;SDS011;9330;52.210;21.174;2022-12-18T11:33:52;50.75;;;25.15;;
18407;SDS011;9330;52.210;21.174;2022-12-18T11:36:25;44.67;;;24.80;;
18407;SDS011;9330;52.210;21.174;2022-12-18T11:38:57;42.73;;;23.33;;
18407;SDS011;9330;52.210;21.174;2022-12-18T11:41:32;41.97;;;23.60;;
18407;SDS011;9330;52.210;21.174;2022-12-18T11:44:21;50.13;;;25.83;;
18407;SDS011;9330;52.210;21.174;2022-12-18T11:46:55;50.58;;;25.52;;
18407;SDS011;9330;52.210;21.174;2022-12-18T11:49:27;46.13;;;23.95;;
18407;SDS011;9330;52.210;21.174;2022-12-18T11:52:00;43.53;;;25.08;;
18407;SDS011;9330;52.210;21.174;2022-12-18T11:54:35;44.97;;;25.63;;
18407;SDS011;9330;52.210;21.174;2022-12-18T11:57:05;49.67;;;25.98;;
18407;SDS011;9330;52.210;21.174;2022-12-18T11:59:41;49.13;;;27.50;;
18407;SDS011;9330;52.210;21.174;2022-12-18T12:02:21;59.67;;;28.98;;
18407;SDS011;9330;52.210;21.174;2022-12-18T12:05:00;51.78;;;26.77;;
18407;SDS011;9330;52.210;21.174;2022-12-18T12:07:42;47.50;;;26.23;;
18407;SDS011;9330;52.210;21.174;2022-12-18T12:10:26;52.97;;;27.03;;
18407;SDS011;9330;52.210;21.174;2022-12-18T12:13:05;49.38;;;27.58;;
18407;SDS011;9330;52.210;21.174;2022-12-18T12:15:47;48.15;;;25.50;;
18407;SDS011;9330;52.210;21.174;2022-12-18T12:18:24;53.33;;;28.42;;
18407;SDS011;9330;52.210;21.174;2022-12-18T12:20:59;52.90;;;26.10;;
18407;SDS011;9330;52.210;21.174;2022-12-18T12:23:37;52.55;;;27.92;;
18407;SDS011;9330;52.210;21.174;2022-12-18T12:26:13;50.78;;;27.92;;
18407;SDS011;9330;52.210;21.174;2022-12-18T12:28:56;54.65;;;26.60;;
18407;SDS011;9330;52.210;21.174;2022-12-18T12:31:33;51.00;;;26.83;;
18407;SDS011;9330;52.210;21.174;2022-12-18T12:34:15;52.50;;;28.07;;
18407;SDS011;9330;52.210;21.174;2022-12-18T12:36:52;46.85;;;26.52;;
18407;SDS011;9330;52.210;21.174;2022-12-18T12:39:29;52.72;;;27.05;;
18407;SDS011;9330;52.210;21.174;2022-12-18T12:41:59;52.88;;;27.67;;
18407;SDS011;9330;52.210;21.174;2022-12-18T12:44:49;57.67;;;29.35;;
18407;SDS011;9330;52.210;21.174;2022-12-18T12:47:20;53.65;;;28.48;;
18407;SDS011;9330;52.210;21.174;2022-12-18T12:49:51;50.92;;;28.67;;
18407;SDS011;9330;52.210;21.174;2022-12-18T12:52:22;52.55;;;25.92;;
18407;SDS011;9330;52.210;21.174;2022-12-18T12:54:54;52.97;;;27.75;;
18407;SDS011;9330;52.210;21.174;2022-12-18T12:57:23;52.65;;;28.55;;
18407;SDS011;9330;52.210;21.174;2022-12-18T13:00:00;52.30;;;27.88;;
18407;SDS011;9330;52.210;21.174;2022-12-18T13:02:33;50.90;;;27.15;;
18407;SDS011;9330;52.210;21.174;2022-12-18T13:05:07;53.33;;;27.50;;
18407;SDS011;9330;52.210;21.174;2022-12-18T13:07:45;52.00;;;28.17;;
18407;SDS011;9330;52.210;21.174;2022-12-18T13:10:23;55.08;;;29.48;;
18407;SDS011;9330;52.210;21.174;2022-12-18T13:13:01;56.43;;;29.43;;
18407;SDS011;9330;52.210;21.174;2022-12-18T13:15:32;57.42;;;29.50;;
18407;SDS011;9330;52.210;21.174;2022-12-18T13:18:03;52.63;;;29.02;;
18407;SDS011;9330;52.210;21.174;2022-12-18T13:20:32;53.65;;;28.23;;
18407;SDS011;9330;52.210;21.174;2022-12-18T13:23:01;52.00;;;29.67;;
18407;SDS011;9330;52.210;21.174;2022-12-18T13:25:46;57.78;;;28.92;;
18407;SDS011;9330;52.210;21.174;2022-12-18T13:28:13;53.05;;;28.60;;
18407;SDS011;9330;52.210;21.174;2022-12-18T13:30:55;56.50;;;28.48;;
18407;SDS011;9330;52.210;21.174;2022-12-18T13:33:39;49.28;;;27.27;;
18407;SDS011;9330;52.210;21.174;2022-12-18T13:39:10;58.60;;;29.02;;
18407;SDS011;9330;52.210;21.174;2022-12-18T13:41:47;55.30;;;29.88;;
18407;SDS011;9330;52.210;21.174;2022-12-18T13:44:22;61.67;;;30.67;;
18407;SDS011;9330;52.210;21.174;2022-12-18T13:46:53;57.85;;;29.75;;
18407;SDS011;9330;52.210;21.174;2022-12-18T13:49:21;58.45;;;30.15;;
18407;SDS011;9330;52.210;21.174;2022-12-18T13:51:52;58.00;;;29.92;;
18407;SDS011;9330;52.210;21.174;2022-12-18T13:54:21;55.53;;;28.48;;
18407;SDS011;9330;52.210;21.174;2022-12-18T13:56:55;55.55;;;29.35;;
18407;SDS011;9330;52.210;21.174;2022-12-18T13:59:23;58.05;;;30.00;;
18407;SDS011;9330;52.210;21.174;2022-12-18T14:01:52;54.45;;;29.30;;
18407;SDS011;9330;52.210;21.174;2022-12-18T14:04:26;57.63;;;31.02;;
18407;SDS011;9330;52.210;21.174;2022-12-18T14:06:56;56.15;;;29.63;;
18407;SDS011;9330;52.210;21.174;2022-12-18T14:09:25;60.13;;;30.02;;
18407;SDS011;9330;52.210;21.174;2022-12-18T14:11:54;53.38;;;28.42;;
18407;SDS011;9330;52.210;21.174;2022-12-18T14:14:37;59.30;;;29.95;;
18407;SDS011;9330;52.210;21.174;2022-12-18T14:17:09;60.83;;;28.65;;
18407;SDS011;9330;52.210;21.174;2022-12-18T14:19:40;53.53;;;27.95;;
18407;SDS011;9330;52.210;21.174;2022-12-18T14:22:12;53.42;;;29.67;;
18407;SDS011;9330;52.210;21.174;2022-12-18T14:24:41;54.97;;;29.85;;
18407;SDS011;9330;52.210;21.174;2022-12-18T14:27:12;61.33;;;30.90;;
18407;SDS011;9330;52.210;21.174;2022-12-18T14:29:50;57.85;;;29.20;;
18407;SDS011;9330;52.210;21.174;2022-12-18T14:32:19;61.10;;;31.63;;
18407;SDS011;9330;52.210;21.174;2022-12-18T14:34:48;55.77;;;29.33;;
18407;SDS011;9330;52.210;21.174;2022-12-18T14:37:17;53.58;;;28.92;;
18407;SDS011;9330;52.210;21.174;2022-12-18T14:39:53;57.10;;;29.00;;
18407;SDS011;9330;52.210;21.174;2022-12-18T14:42:23;52.13;;;28.85;;
18407;SDS011;9330;52.210;21.174;2022-12-18T14:47:54;49.08;;;26.95;;
18407;SDS011;9330;52.210;21.174;2022-12-18T14:50:21;51.63;;;27.27;;